sensor_id;sensor_type;location;lat;lon;timestamp;P1;durP1;ratioP1;P2;durP2;ratioP2
52043;SDS011;38053;53.100;6.078;2023-02-17T00:01:12;67.68;;;31.98;;
52043;SDS011;38053;53.100;6.078;2023-02-17T00:03:38;65.78;;;34.00;;
52043;SDS011;38053;53.100;6.078;2023-02-17T00:06:07;63.58;;;34.15;;
52043;SDS011;38053;53.100;6.078;2023-02-17T00:08:34;63.55;;;33.25;;
52043;SDS011;38053;53.100;6.078;2023-02-17T00:11:01;69.65;;;36.20;;
52043;SDS011;38053;53.100;6.078;2023-02-17T00:13:27;70.93;;;36.85;;
52043;SDS011;38053;53.100;6.078;2023-02-17T00:15:53;83.97;;;38.08;;
52043;SDS011;38053;53.100;6.078;2023-02-17T00:18:19;77.57;;;37.17;;
52043;SDS011;38053;53.100;6.078;2023-02-17T00:20:48;76.38;;;37.80;;
52043;SDS011;38053;53.100;6.078;2023-02-17T00:23:14;72.75;;;35.00;;
52043;SDS011;38053;53.100;6.078;2023-02-17T00:25:43;84.45;;;38.42;;
52043;SDS011;38053;53.100;6.078;2023-02-17T00:28:11;66.53;;;36.00;;
52043;SDS011;38053;53.100;6.078;2023-02-17T00:30:40;78.82;;;38.22;;
52043;SDS011;38053;53.100;6.078;2023-02-17T00:33:06;79.72;;;37.78;;
52043;SDS011;38053;53.100;6.078;2023-02-17T00:35:32;80.93;;;39.42;;
52043;SDS011;38053;53.100;6.078;2023-02-17T00:37:57;74.00;;;38.25;;
52043;SDS011;38053;53.100;6.078;2023-02-17T00:40:28;76.45;;;39.17;;
52043;SDS011;38053;53.100;6.078;2023-02-17T00:42:54;79.55;;;40.35;;
52043;SDS011;38053;53.100;6.078;2023-02-17T00:45:20;92.72;;;40.63;;
52043;SDS011;38053;53.100;6.078;2023-02-17T00:47:51;88.28;;;41.92;;
52043;SDS011;38053;53.100;6.078;2023-02-17T00:50:17;90.97;;;38.92;;
52043;SDS011;38053;53.100;6.078;2023-02-17T00:52:43;83.30;;;40.47;;
52043;SDS011;38053;53.100;6.078;2023-02-17T00:55:11;87.22;;;40.15;;
52043;SDS011;38053;53.100;6.078;2023-02-17T00:57:37;79.38;;;40.45;;
52043;SDS011;38053;53.100;6.078;2023-02-17T01:00:03;72.45;;;37.00;;
52043;SDS011;38053;53.100;6.078;2023-02-17T01:02:30;83.78;;;38.70;;
52043;SDS011;38053;53.100;6.078;2023-02-17T01:04:57;83.32;;;37.40;;
52043;SDS011;38053;53.100;6.078;2023-02-17T01:07:25;67.85;;;36.25;;
52043;SDS011;38053;53.100;6.078;2023-02-17T01:09:54;62.15;;;34.83;;
52043;SDS011;38053;53.100;6.078;2023-02-17T01:12:25;69.90;;;34.83;;
52043;SDS011;38053;53.100;6.078;2023-02-17T01:15:19;74.78;;;34.22;;
52043;SDS011;38053;53.100;6.078;2023-02-17T01:17:48;66.68;;;31.55;;
52043;SDS011;38053;53.100;6.078;2023-02-17T01:20:22;75.90;;;34.65;;
52043;SDS011;38053;53.100;6.078;2023-02-17T01:22:48;71.13;;;31.02;;
52043;SDS011;38053;53.100;6.078;2023-02-17T01:25:29;62.65;;;31.80;;
52043;SDS011;38053;53.100;6.078;2023-02-17T01:28:05;65.10;;;30.92;;
52043;SDS011;38053;53.100;6.078;2023-02-17T01:30:40;68.20;;;32.58;;
52043;SDS011;38053;53.100;6.078;2023-02-17T01:33:06;68.97;;;34.50;;
52043;SDS011;38053;53.100;6.078;2023-02-17T01:38:17;68.65;;;36.58;;
52043;SDS011;38053;53.100;6.078;2023-02-17T01:41:04;65.22;;;33.58;;
52043;SDS011;38053;53.100;6.078;2023-02-17T01:43:34;61.53;;;35.65;;
52043;SDS011;38053;53.100;6.078;2023-02-17T01:49:35;69.10;;;34.00;;
52043;SDS011;38053;53.100;6.078;2023-02-17T01:52:25;80.03;;;34.07;;
52043;SDS011;38053;53.100;6.078;2023-02-17T01:54:59;79.68;;;35.42;;
52043;SDS011;38053;53.100;6.078;2023-02-17T01:57:31;65.47;;;35.50;;
52043;SDS011;38053;53.100;6.078;2023-02-17T02:00:16;78.55;;;35.13;;
52043;SDS011;38053;53.100;6.078;2023-02-17T02:02:57;66.00;;;31.23;;
52043;SDS011;38053;53.100;6.078;2023-02-17T02:05:44;67.93;;;31.35;;
52043;SDS011;38053;53.100;6.078;2023-02-17T02:08:22;65.50;;;34.40;;
52043;SDS011;38053;53.100;6.078;2023-02-17T02:11:08;66.95;;;30.55;;
52043;SDS011;38053;53.100;6.078;2023-02-17T02:16:22;61.20;;;31.35;;
52043;SDS011;38053;53.100;6.078;2023-02-17T02:30:55;59.78;;;32.22;;
52043;SDS011;38053;53.100;6.078;2023-02-17T02:34:05;75.05;;;31.45;;
52043;SDS011;38053;53.100;6.078;2023-02-17T02:40:15;64.20;;;30.73;;
52043;SDS011;38053;53.100;6.078;2023-02-17T02:42:51;58.05;;;31.98;;
52043;SDS011;38053;53.100;6.078;2023-02-17T02:45:25;60.75;;;33.20;;
52043;SDS011;38053;53.100;6.078;2023-02-17T02:48:01;61.03;;;30.27;;
52043;SDS011;38053;53.100;6.078;2023-02-17T02:56:04;69.03;;;31.75;;
52043;SDS011;38053;53.100;6.078;2023-02-17T03:07:44;70.65;;;34.38;;
52043;SDS011;38053;53.100;6.078;2023-02-17T03:10:45;61.95;;;32.50;;
52043;SDS011;38053;53.100;6.078;2023-02-17T03:16:16;53.95;;;31.88;;
52043;SDS011;38053;53.100;6.078;2023-02-17T03:19:18;62.40;;;33.13;;
52043;SDS011;38053;53.100;6.078;2023-02-17T03:25:22;67.80;;;35.50;;
52043;SDS011;38053;53.100;6.078;2023-02-17T03:27:48;61.55;;;35.20;;
52043;SDS011;38053;53.100;6.078;2023-02-17T03:30:47;56.85;;;33.20;;
52043;SDS011;38053;53.100;6.078;2023-02-17T03:33:26;69.80;;;34.45;;
52043;SDS011;38053;53.100;6.078;2023-02-17T03:36:00;66.20;;;32.72;;
52043;SDS011;38053;53.100;6.078;2023-02-17T08:38:39;27.88;;;13.68;;
52043;SDS011;38053;53.100;6.078;2023-02-17T08:41:34;38.67;;;14.68;;
52043;SDS011;38053;53.100;6.078;2023-02-17T08:44:54;30.08;;;12.32;;
52043;SDS011;38053;53.100;6.078;2023-02-17T08:57:16;27.52;;;11.23;;
52043;SDS011;38053;53.100;6.078;2023-02-17T09:00:15;29.15;;;12.05;;
52043;SDS011;38053;53.100;6.078;2023-02-17T09:03:02;23.60;;;9.90;;
52043;SDS011;38053;53.100;6.078;2023-02-17T09:06:01;34.25;;;11.27;;
52043;SDS011;38053;53.100;6.078;2023-02-17T09:08:43;27.92;;;12.27;;
52043;SDS011;38053;53.100;6.078;2023-02-17T09:15:07;27.40;;;11.07;;
52043;SDS011;38053;53.100;6.078;2023-02-17T09:17:45;30.55;;;11.95;;
52043;SDS011;38053;53.100;6.078;2023-02-17T09:20:39;20.23;;;9.07;;
52043;SDS011;38053;53.100;6.078;2023-02-17T09:23:21;30.00;;;10.95;;
52043;SDS011;38053;53.100;6.078;2023-02-17T09:35:41;28.48;;;9.65;;
52043;SDS011;38053;53.100;6.078;2023-02-17T09:38:31;17.35;;;7.47;;
52043;SDS011;38053;53.100;6.078;2023-02-17T09:41:24;21.45;;;9.55;;
52043;SDS011;38053;53.100;6.078;2023-02-17T09:44:48;19.27;;;8.10;;
52043;SDS011;38053;53.100;6.078;2023-02-17T09:47:52;25.33;;;10.57;;
52043;SDS011;38053;53.100;6.078;2023-02-17T09:54:13;27.67;;;9.25;;
52043;SDS011;38053;53.100;6.078;2023-02-17T09:57:21;21.95;;;7.93;;
52043;SDS011;38053;53.100;6.078;2023-02-17T10:06:25;21.10;;;9.15;;
52043;SDS011;38053;53.100;6.078;2023-02-17T10:11:51;27.85;;;9.65;;
52043;SDS011;38053;53.100;6.078;2023-02-17T10:20:10;26.90;;;8.68;;
52043;SDS011;38053;53.100;6.078;2023-02-17T10:22:45;18.63;;;7.85;;
52043;SDS011;38053;53.100;6.078;2023-02-17T10:25:19;19.20;;;7.18;;
52043;SDS011;38053;53.100;6.078;2023-02-17T10:28:03;21.63;;;8.23;;
52043;SDS011;38053;53.100;6.078;2023-02-17T10:33:13;15.32;;;7.07;;
52043;SDS011;38053;53.100;6.078;2023-02-17T10:39:53;18.10;;;7.53;;
52043;SDS011;38053;53.100;6.078;2023-02-17T10:42:20;20.65;;;6.55;;
52043;SDS011;38053;53.100;6.078;2023-02-17T10:44:58;36.90;;;8.07;;
52043;SDS011;38053;53.100;6.078;2023-02-17T10:47:28;21.52;;;6.72;;
52043;SDS011;38053;53.100;6.078;2023-02-17T10:49:54;21.50;;;6.93;;
52043;SDS011;38053;53.100;6.078;2023-02-17T10:52:44;11.18;;;5.00;;
52043;SDS011;38053;53.100;6.078;2023-02-17T10:58:13;16.33;;;5.88;;
52043;SDS011;38053;53.100;6.078;2023-02-17T11:00:40;20.42;;;6.35;;
52043;SDS011;38053;53.100;6.078;2023-02-17T11:03:17;16.10;;;5.45;;
52043;SDS011;38053;53.100;6.078;2023-02-17T11:05:50;15.05;;;4.53;;
52043;SDS011;38053;53.100;6.078;2023-02-17T11:08:34;18.83;;;5.15;;
52043;SDS011;38053;53.100;6.078;2023-02-17T11:13:38;17.67;;;4.97;;
52043;SDS011;38053;53.100;6.078;2023-02-17T11:16:19;19.08;;;4.82;;
52043;SDS011;38053;53.100;6.078;2023-02-17T11:18:49;16.35;;;4.05;;
52043;SDS011;38053;53.100;6.078;2023-02-17T11:21:16;18.55;;;3.80;;
52043;SDS011;38053;53.100;6.078;2023-02-17T11:23:54;15.63;;;4.80;;
52043;SDS011;38053;53.100;6.078;2023-02-17T11:26:28;23.02;;;5.53;;
52043;SDS011;38053;53.100;6.078;2023-02-17T11:32:02;10.57;;;3.15;;
52043;SDS011;38053;53.100;6.078;2023-02-17T11:34:34;17.20;;;3.00;;
52043;SDS011;38053;53.100;6.078;2023-02-17T11:39:46;16.95;;;5.03;;
52043;SDS011;38053;53.100;6.078;2023-02-17T11:42:21;21.88;;;5.65;;
52043;SDS011;38053;53.100;6.078;2023-02-17T11:44:48;18.52;;;5.15;;
52043;SDS011;38053;53.100;6.078;2023-02-17T11:50:37;11.70;;;3.58;;
52043;SDS011;38053;53.100;6.078;2023-02-17T11:53:54;19.47;;;3.93;;
52043;SDS011;38053;53.100;6.078;2023-02-17T11:56:33;17.33;;;3.07;;
52043;SDS011;38053;53.100;6.078;2023-02-17T12:02:36;20.88;;;3.13;;
52043;SDS011;38053;53.100;6.078;2023-02-17T12:16:41;15.48;;;3.42;;
52043;SDS011;38053;53.100;6.078;2023-02-17T12:35:00;22.65;;;4.13;;
52043;SDS011;38053;53.100;6.078;2023-02-17T12:37:42;14.25;;;3.92;;
52043;SDS011;38053;53.100;6.078;2023-02-17T12:43:20;14.00;;;3.17;;
52043;SDS011;38053;53.100;6.078;2023-02-17T12:46:01;11.73;;;3.53;;
52043;SDS011;38053;53.100;6.078;2023-02-17T12:48:41;12.35;;;2.90;;
52043;SDS011;38053;53.100;6.078;2023-02-17T12:51:11;10.50;;;2.25;;
52043;SDS011;38053;53.100;6.078;2023-02-17T12:53:45;9.98;;;2.60;;
52043;SDS011;38053;53.100;6.078;2023-02-17T12:58:52;16.48;;;3.75;;
52043;SDS011;38053;53.100;6.078;2023-02-17T13:01:23;14.40;;;2.75;;
52043;SDS011;38053;53.100;6.078;2023-02-17T13:03:54;17.73;;;3.55;;
52043;SDS011;38053;53.100;6.078;2023-02-17T13:06:30;14.75;;;3.40;;
52043;SDS011;38053;53.100;6.078;2023-02-17T13:11:50;11.57;;;2.70;;
52043;SDS011;38053;53.100;6.078;2023-02-17T13:14:37;14.30;;;3.10;;
52043;SDS011;38053;53.100;6.078;2023-02-17T13:22:44;12.85;;;3.75;;
52043;SDS011;38053;53.100;6.078;2023-02-17T13:25:24;13.25;;;3.47;;
52043;SDS011;38053;53.100;6.078;2023-02-17T13:27:53;15.90;;;3.08;;
52043;SDS011;38053;53.100;6.078;2023-02-17T13:33:00;15.05;;;4.05;;
52043;SDS011;38053;53.100;6.078;2023-02-17T13:35:32;14.63;;;2.63;;
52043;SDS011;38053;53.100;6.078;2023-02-17T13:38:00;19.10;;;3.78;;
52043;SDS011;38053;53.100;6.078;2023-02-17T13:43:17;15.00;;;3.13;;
52043;SDS011;38053;53.100;6.078;2023-02-17T13:45:45;9.80;;;2.42;;
52043;SDS011;38053;53.100;6.078;2023-02-17T13:48:24;21.08;;;3.97;;
52043;SDS011;38053;53.100;6.078;2023-02-17T13:51:24;13.68;;;3.58;;
52043;SDS011;38053;53.100;6.078;2023-02-17T13:53:51;14.90;;;3.75;;
52043;SDS011;38053;53.100;6.078;2023-02-17T13:58:53;11.45;;;4.03;;
52043;SDS011;38053;53.100;6.078;2023-02-17T14:01:30;13.65;;;3.47;;
52043;SDS011;38053;53.100;6.078;2023-02-17T14:03:58;14.80;;;3.58;;
52043;SDS011;38053;53.100;6.078;2023-02-17T14:06:29;25.25;;;5.07;;
52043;SDS011;38053;53.100;6.078;2023-02-17T14:11:25;19.80;;;3.83;;
52043;SDS011;38053;53.100;6.078;2023-02-17T14:13:54;11.68;;;3.63;;
52043;SDS011;38053;53.100;6.078;2023-02-17T14:16:35;21.45;;;3.90;;
52043;SDS011;38053;53.100;6.078;2023-02-17T14:19:06;22.83;;;6.13;;
52043;SDS011;38053;53.100;6.078;2023-02-17T14:21:36;18.45;;;3.55;;
52043;SDS011;38053;53.100;6.078;2023-02-17T14:24:05;17.33;;;4.53;;
52043;SDS011;38053;53.100;6.078;2023-02-17T14:26:34;20.50;;;5.07;;
52043;SDS011;38053;53.100;6.078;2023-02-17T14:29:09;16.58;;;5.53;;
52043;SDS011;38053;53.100;6.078;2023-02-17T14:31:41;12.93;;;2.90;;
52043;SDS011;38053;53.100;6.078;2023-02-17T14:34:16;20.90;;;4.55;;
52043;SDS011;38053;53.100;6.078;2023-02-17T14:36:53;19.83;;;4.40;;
52043;SDS011;38053;53.100;6.078;2023-02-17T14:39:19;14.45;;;4.05;;
52043;SDS011;38053;53.100;6.078;2023-02-17T14:41:45;17.60;;;3.88;;
52043;SDS011;38053;53.100;6.078;2023-02-17T14:44:12;21.55;;;3.53;;
52043;SDS011;38053;53.100;6.078;2023-02-17T14:46:38;18.95;;;5.28;;
52043;SDS011;38053;53.100;6.078;2023-02-17T14:49:04;15.18;;;3.92;;
52043;SDS011;38053;53.100;6.078;2023-02-17T14:51:32;16.55;;;4.40;;
52043;SDS011;38053;53.100;6.078;2023-02-17T14:54:02;33.42;;;5.22;;
52043;SDS011;38053;53.100;6.078;2023-02-17T14:56:40;21.48;;;4.13;;
52043;SDS011;38053;53.100;6.078;2023-02-17T15:01:34;23.73;;;5.40;;
52043;SDS011;38053;53.100;6.078;2023-02-17T15:04:00;14.48;;;3.00;;
52043;SDS011;38053;53.100;6.078;2023-02-17T15:06:40;14.82;;;4.38;;
52043;SDS011;38053;53.100;6.078;2023-02-17T15:09:11;18.77;;;3.85;;
52043;SDS011;38053;53.100;6.078;2023-02-17T15:11:39;14.40;;;3.85;;
52043;SDS011;38053;53.100;6.078;2023-02-17T15:14:13;24.27;;;4.10;;
52043;SDS011;38053;53.100;6.078;2023-02-17T15:16:41;24.38;;;5.32;;
52043;SDS011;38053;53.100;6.078;2023-02-17T15:19:10;19.77;;;4.32;;
52043;SDS011;38053;53.100;6.078;2023-02-17T15:21:38;14.20;;;2.97;;
52043;SDS011;38053;53.100;6.078;2023-02-17T15:24:15;22.45;;;4.75;;
52043;SDS011;38053;53.100;6.078;2023-02-17T15:26:47;22.30;;;4.07;;
52043;SDS011;38053;53.100;6.078;2023-02-17T15:29:16;17.08;;;4.05;;
52043;SDS011;38053;53.100;6.078;2023-02-17T15:31:46;11.48;;;2.97;;
52043;SDS011;38053;53.100;6.078;2023-02-17T15:34:16;27.98;;;5.68;;
52043;SDS011;38053;53.100;6.078;2023-02-17T15:36:50;14.23;;;2.92;;
52043;SDS011;38053;53.100;6.078;2023-02-17T15:39:17;19.27;;;4.68;;
52043;SDS011;38053;53.100;6.078;2023-02-17T15:41:46;12.02;;;4.80;;
52043;SDS011;38053;53.100;6.078;2023-02-17T15:44:18;13.30;;;3.28;;
52043;SDS011;38053;53.100;6.078;2023-02-17T15:46:48;13.85;;;3.08;;
52043;SDS011;38053;53.100;6.078;2023-02-17T15:49:15;21.08;;;5.55;;
52043;SDS011;38053;53.100;6.078;2023-02-17T15:51:41;21.63;;;4.32;;
52043;SDS011;38053;53.100;6.078;2023-02-17T15:54:07;16.17;;;3.05;;
52043;SDS011;38053;53.100;6.078;2023-02-17T15:56:40;10.73;;;2.97;;
52043;SDS011;38053;53.100;6.078;2023-02-17T15:59:19;27.77;;;3.83;;
52043;SDS011;38053;53.100;6.078;2023-02-17T16:01:49;21.70;;;4.57;;
52043;SDS011;38053;53.100;6.078;2023-02-17T16:04:15;11.50;;;3.03;;
52043;SDS011;38053;53.100;6.078;2023-02-17T16:06:42;14.40;;;3.33;;
52043;SDS011;38053;53.100;6.078;2023-02-17T16:09:08;20.40;;;3.50;;
52043;SDS011;38053;53.100;6.078;2023-02-17T16:11:35;17.80;;;4.28;;
52043;SDS011;38053;53.100;6.078;2023-02-17T16:14:10;19.35;;;3.50;;
52043;SDS011;38053;53.100;6.078;2023-02-17T16:16:47;16.10;;;3.33;;
52043;SDS011;38053;53.100;6.078;2023-02-17T16:19:12;10.77;;;3.63;;
52043;SDS011;38053;53.100;6.078;2023-02-17T16:21:38;15.20;;;4.07;;
52043;SDS011;38053;53.100;6.078;2023-02-17T16:24:04;16.33;;;4.15;;
52043;SDS011;38053;53.100;6.078;2023-02-17T16:26:31;19.27;;;4.07;;
52043;SDS011;38053;53.100;6.078;2023-02-17T16:28:59;20.92;;;4.95;;
52043;SDS011;38053;53.100;6.078;2023-02-17T16:31:27;25.85;;;4.32;;
52043;SDS011;38053;53.100;6.078;2023-02-17T16:33:57;13.75;;;3.70;;
52043;SDS011;38053;53.100;6.078;2023-02-17T16:36:29;15.00;;;3.03;;
52043;SDS011;38053;53.100;6.078;2023-02-17T16:38:56;17.23;;;3.15;;
52043;SDS011;38053;53.100;6.078;2023-02-17T16:41:27;16.67;;;3.95;;
52043;SDS011;38053;53.100;6.078;2023-02-17T16:43:53;22.92;;;3.97;;
52043;SDS011;38053;53.100;6.078;2023-02-17T16:46:26;17.30;;;4.25;;
52043;SDS011;38053;53.100;6.078;2023-02-17T16:48:57;24.20;;;4.53;;
52043;SDS011;38053;53.100;6.078;2023-02-17T16:51:28;20.38;;;4.22;;
52043;SDS011;38053;53.100;6.078;2023-02-17T16:53:55;20.13;;;4.15;;
52043;SDS011;38053;53.100;6.078;2023-02-17T16:56:29;18.60;;;5.43;;
52043;SDS011;38053;53.100;6.078;2023-02-17T16:59:00;16.60;;;3.80;;
52043;SDS011;38053;53.100;6.078;2023-02-17T17:01:26;19.35;;;4.70;;
52043;SDS011;38053;53.100;6.078;2023-02-17T17:03:51;23.30;;;5.97;;
52043;SDS011;38053;53.100;6.078;2023-02-17T17:06:21;24.38;;;5.35;;
52043;SDS011;38053;53.100;6.078;2023-02-17T17:08:50;21.42;;;3.80;;
52043;SDS011;38053;53.100;6.078;2023-02-17T17:11:18;20.08;;;5.35;;
52043;SDS011;38053;53.100;6.078;2023-02-17T17:13:52;25.77;;;5.22;;
52043;SDS011;38053;53.100;6.078;2023-02-17T17:16:19;22.77;;;6.38;;
52043;SDS011;38053;53.100;6.078;2023-02-17T17:18:49;21.83;;;4.50;;
52043;SDS011;38053;53.100;6.078;2023-02-17T17:21:16;14.68;;;4.13;;
52043;SDS011;38053;53.100;6.078;2023-02-17T17:23:43;16.30;;;3.78;;
52043;SDS011;38053;53.100;6.078;2023-02-17T17:26:22;28.88;;;3.72;;
52043;SDS011;38053;53.100;6.078;2023-02-17T17:28:57;21.55;;;3.83;;
52043;SDS011;38053;53.100;6.078;2023-02-17T17:31:23;17.80;;;2.95;;
52043;SDS011;38053;53.100;6.078;2023-02-17T17:33:53;15.32;;;2.15;;
52043;SDS011;38053;53.100;6.078;2023-02-17T17:39:00;14.90;;;3.55;;
52043;SDS011;38053;53.100;6.078;2023-02-17T17:43:56;11.43;;;2.70;;
52043;SDS011;38053;53.100;6.078;2023-02-17T17:46:24;6.40;;;2.22;;
52043;SDS011;38053;53.100;6.078;2023-02-17T17:48:55;20.35;;;3.40;;
52043;SDS011;38053;53.100;6.078;2023-02-17T17:51:26;19.35;;;4.00;;
52043;SDS011;38053;53.100;6.078;2023-02-17T17:53:54;13.57;;;3.83;;
52043;SDS011;38053;53.100;6.078;2023-02-17T17:56:22;18.65;;;4.55;;
52043;SDS011;38053;53.100;6.078;2023-02-17T17:58:51;19.50;;;2.97;;
52043;SDS011;38053;53.100;6.078;2023-02-17T18:01:18;24.60;;;4.32;;
52043;SDS011;38053;53.100;6.078;2023-02-17T18:03:45;13.85;;;2.95;;
52043;SDS011;38053;53.100;6.078;2023-02-17T18:06:13;21.90;;;3.60;;
52043;SDS011;38053;53.100;6.078;2023-02-17T18:08:43;18.17;;;4.75;;
52043;SDS011;38053;53.100;6.078;2023-02-17T18:11:28;15.65;;;3.40;;
52043;SDS011;38053;53.100;6.078;2023-02-17T18:13:55;19.73;;;4.28;;
52043;SDS011;38053;53.100;6.078;2023-02-17T18:16:25;23.55;;;3.60;;
52043;SDS011;38053;53.100;6.078;2023-02-17T18:18:52;20.08;;;5.57;;
52043;SDS011;38053;53.100;6.078;2023-02-17T18:21:20;19.27;;;5.05;;
52043;SDS011;38053;53.100;6.078;2023-02-17T18:23:46;10.02;;;2.03;;
52043;SDS011;38053;53.100;6.078;2023-02-17T18:26:12;18.08;;;4.60;;
52043;SDS011;38053;53.100;6.078;2023-02-17T18:28:39;26.08;;;4.05;;
52043;SDS011;38053;53.100;6.078;2023-02-17T18:31:10;21.48;;;3.80;;
52043;SDS011;38053;53.100;6.078;2023-02-17T18:33:37;19.05;;;4.38;;
52043;SDS011;38053;53.100;6.078;2023-02-17T18:36:25;24.75;;;4.03;;
52043;SDS011;38053;53.100;6.078;2023-02-17T18:38:51;17.42;;;5.20;;
52043;SDS011;38053;53.100;6.078;2023-02-17T18:41:18;13.95;;;2.63;;
52043;SDS011;38053;53.100;6.078;2023-02-17T18:43:46;25.67;;;4.28;;
52043;SDS011;38053;53.100;6.078;2023-02-17T18:46:12;19.42;;;4.95;;
52043;SDS011;38053;53.100;6.078;2023-02-17T18:48:41;16.48;;;3.28;;
52043;SDS011;38053;53.100;6.078;2023-02-17T18:51:07;23.20;;;4.45;;
52043;SDS011;38053;53.100;6.078;2023-02-17T18:53:36;20.27;;;3.70;;
52043;SDS011;38053;53.100;6.078;2023-02-17T18:56:03;22.95;;;4.93;;
52043;SDS011;38053;53.100;6.078;2023-02-17T18:58:36;13.73;;;2.78;;
52043;SDS011;38053;53.100;6.078;2023-02-17T19:01:02;17.75;;;3.78;;
52043;SDS011;38053;53.100;6.078;2023-02-17T19:03:28;18.50;;;3.33;;
52043;SDS011;38053;53.100;6.078;2023-02-17T19:05:54;27.08;;;5.40;;
52043;SDS011;38053;53.100;6.078;2023-02-17T19:08:20;27.90;;;5.47;;
52043;SDS011;38053;53.100;6.078;2023-02-17T19:10:45;21.60;;;3.63;;
52043;SDS011;38053;53.100;6.078;2023-02-17T19:13:12;17.35;;;5.53;;
52043;SDS011;38053;53.100;6.078;2023-02-17T19:15:55;22.05;;;3.67;;
52043;SDS011;38053;53.100;6.078;2023-02-17T19:18:48;20.25;;;4.30;;
52043;SDS011;38053;53.100;6.078;2023-02-17T19:21:14;23.70;;;4.18;;
52043;SDS011;38053;53.100;6.078;2023-02-17T19:23:41;29.58;;;6.72;;
52043;SDS011;38053;53.100;6.078;2023-02-17T19:26:08;31.05;;;4.60;;
52043;SDS011;38053;53.100;6.078;2023-02-17T19:28:35;23.88;;;5.68;;
52043;SDS011;38053;53.100;6.078;2023-02-17T19:31:06;29.17;;;6.63;;
52043;SDS011;38053;53.100;6.078;2023-02-17T19:33:33;17.88;;;4.40;;
52043;SDS011;38053;53.100;6.078;2023-02-17T19:36:05;34.38;;;5.40;;
52043;SDS011;38053;53.100;6.078;2023-02-17T19:38:35;26.38;;;5.20;;
52043;SDS011;38053;53.100;6.078;2023-02-17T19:41:02;19.17;;;4.70;;
52043;SDS011;38053;53.100;6.078;2023-02-17T19:43:28;24.48;;;4.68;;
52043;SDS011;38053;53.100;6.078;2023-02-17T19:45:56;19.80;;;4.70;;
52043;SDS011;38053;53.100;6.078;2023-02-17T19:48:22;18.67;;;4.82;;
52043;SDS011;38053;53.100;6.078;2023-02-17T19:50:49;28.13;;;5.78;;
52043;SDS011;38053;53.100;6.078;2023-02-17T19:53:16;20.23;;;3.60;;
52043;SDS011;38053;53.100;6.078;2023-02-17T19:55:44;20.42;;;5.22;;
52043;SDS011;38053;53.100;6.078;2023-02-17T19:58:09;31.63;;;5.50;;
52043;SDS011;38053;53.100;6.078;2023-02-17T20:00:38;19.33;;;4.88;;
52043;SDS011;38053;53.100;6.078;2023-02-17T20:03:03;26.67;;;8.25;;
52043;SDS011;38053;53.100;6.078;2023-02-17T20:05:29;25.67;;;6.38;;
52043;SDS011;38053;53.100;6.078;2023-02-17T20:07:55;23.88;;;4.90;;
52043;SDS011;38053;53.100;6.078;2023-02-17T20:10:21;27.75;;;5.13;;
52043;SDS011;38053;53.100;6.078;2023-02-17T20:12:47;24.73;;;5.38;;
52043;SDS011;38053;53.100;6.078;2023-02-17T20:15:13;21.42;;;5.45;;
52043;SDS011;38053;53.100;6.078;2023-02-17T20:17:42;27.83;;;4.72;;
52043;SDS011;38053;53.100;6.078;2023-02-17T20:20:08;38.53;;;6.57;;
52043;SDS011;38053;53.100;6.078;2023-02-17T20:22:37;17.45;;;4.40;;
52043;SDS011;38053;53.100;6.078;2023-02-17T20:25:08;17.58;;;4.53;;
52043;SDS011;38053;53.100;6.078;2023-02-17T20:27:34;29.00;;;6.30;;
52043;SDS011;38053;53.100;6.078;2023-02-17T20:29:59;24.17;;;7.82;;
52043;SDS011;38053;53.100;6.078;2023-02-17T20:32:26;24.55;;;6.60;;
52043;SDS011;38053;53.100;6.078;2023-02-17T20:34:53;33.00;;;6.85;;
52043;SDS011;38053;53.100;6.078;2023-02-17T20:37:24;46.20;;;8.32;;
52043;SDS011;38053;53.100;6.078;2023-02-17T20:39:49;29.75;;;8.93;;
52043;SDS011;38053;53.100;6.078;2023-02-17T20:42:15;19.95;;;4.30;;
52043;SDS011;38053;53.100;6.078;2023-02-17T20:44:41;34.67;;;5.38;;
52043;SDS011;38053;53.100;6.078;2023-02-17T20:47:07;27.15;;;5.18;;
52043;SDS011;38053;53.100;6.078;2023-02-17T20:49:36;25.95;;;5.00;;
52043;SDS011;38053;53.100;6.078;2023-02-17T20:52:01;34.22;;;5.00;;
52043;SDS011;38053;53.100;6.078;2023-02-17T20:54:31;15.75;;;3.97;;
52043;SDS011;38053;53.100;6.078;2023-02-17T20:56:56;25.52;;;5.65;;
52043;SDS011;38053;53.100;6.078;2023-02-17T20:59:25;22.30;;;4.63;;
52043;SDS011;38053;53.100;6.078;2023-02-17T21:01:51;23.83;;;4.47;;
52043;SDS011;38053;53.100;6.078;2023-02-17T21:04:18;24.30;;;5.95;;
52043;SDS011;38053;53.100;6.078;2023-02-17T21:06:44;35.58;;;6.07;;
52043;SDS011;38053;53.100;6.078;2023-02-17T21:09:12;23.17;;;4.63;;
52043;SDS011;38053;53.100;6.078;2023-02-17T21:11:42;19.25;;;3.58;;
52043;SDS011;38053;53.100;6.078;2023-02-17T21:14:08;33.47;;;8.00;;
52043;SDS011;38053;53.100;6.078;2023-02-17T21:16:34;30.60;;;8.05;;
52043;SDS011;38053;53.100;6.078;2023-02-17T21:19:00;29.58;;;6.38;;
52043;SDS011;38053;53.100;6.078;2023-02-17T21:21:27;25.67;;;5.35;;
52043;SDS011;38053;53.100;6.078;2023-02-17T21:23:54;28.35;;;6.28;;
52043;SDS011;38053;53.100;6.078;2023-02-17T21:26:22;23.00;;;6.30;;
52043;SDS011;38053;53.100;6.078;2023-02-17T21:28:48;35.05;;;4.88;;
52043;SDS011;38053;53.100;6.078;2023-02-17T21:31:14;20.55;;;4.57;;
52043;SDS011;38053;53.100;6.078;2023-02-17T21:33:41;23.70;;;5.15;;
52043;SDS011;38053;53.100;6.078;2023-02-17T21:36:08;21.55;;;5.47;;
52043;SDS011;38053;53.100;6.078;2023-02-17T21:38:35;17.45;;;5.10;;
52043;SDS011;38053;53.100;6.078;2023-02-17T21:41:06;23.98;;;3.83;;
52043;SDS011;38053;53.100;6.078;2023-02-17T21:43:35;33.13;;;5.25;;
52043;SDS011;38053;53.100;6.078;2023-02-17T21:46:20;16.60;;;4.15;;
52043;SDS011;38053;53.100;6.078;2023-02-17T21:48:48;35.85;;;6.10;;
52043;SDS011;38053;53.100;6.078;2023-02-17T21:51:14;20.60;;;4.78;;
52043;SDS011;38053;53.100;6.078;2023-02-17T21:53:40;22.40;;;4.32;;
52043;SDS011;38053;53.100;6.078;2023-02-17T21:56:06;29.13;;;4.95;;
52043;SDS011;38053;53.100;6.078;2023-02-17T21:58:32;27.63;;;6.00;;
52043;SDS011;38053;53.100;6.078;2023-02-17T22:00:58;19.80;;;4.38;;
52043;SDS011;38053;53.100;6.078;2023-02-17T22:03:25;39.95;;;5.90;;
52043;SDS011;38053;53.100;6.078;2023-02-17T22:05:51;21.83;;;4.43;;
52043;SDS011;38053;53.100;6.078;2023-02-17T22:08:20;25.67;;;4.65;;
52043;SDS011;38053;53.100;6.078;2023-02-17T22:10:45;26.55;;;5.53;;
52043;SDS011;38053;53.100;6.078;2023-02-17T22:13:11;26.35;;;4.18;;
52043;SDS011;38053;53.100;6.078;2023-02-17T22:15:37;23.52;;;5.47;;
52043;SDS011;38053;53.100;6.078;2023-02-17T22:18:03;25.80;;;4.78;;
52043;SDS011;38053;53.100;6.078;2023-02-17T22:20:29;23.80;;;4.60;;
52043;SDS011;38053;53.100;6.078;2023-02-17T22:22:55;25.42;;;5.28;;
52043;SDS011;38053;53.100;6.078;2023-02-17T22:25:32;14.65;;;3.85;;
52043;SDS011;38053;53.100;6.078;2023-02-17T22:27:58;20.42;;;4.22;;
52043;SDS011;38053;53.100;6.078;2023-02-17T22:30:24;25.88;;;5.05;;
52043;SDS011;38053;53.100;6.078;2023-02-17T22:32:54;18.80;;;3.83;;
52043;SDS011;38053;53.100;6.078;2023-02-17T22:35:21;33.13;;;4.88;;
52043;SDS011;38053;53.100;6.078;2023-02-17T22:37:47;20.10;;;4.43;;
52043;SDS011;38053;53.100;6.078;2023-02-17T22:40:14;19.95;;;3.80;;
52043;SDS011;38053;53.100;6.078;2023-02-17T22:42:39;18.92;;;4.07;;
52043;SDS011;38053;53.100;6.078;2023-02-17T22:45:05;25.50;;;4.68;;
52043;SDS011;38053;53.100;6.078;2023-02-17T22:47:31;28.70;;;4.35;;
52043;SDS011;38053;53.100;6.078;2023-02-17T22:50:09;25.48;;;4.95;;